sensor_id;sensor_type;location;lat;lon;timestamp;P1;durP1;ratioP1;P2;durP2;ratioP2
2488;SDS011;1255;48.716;9.124;2022-08-20T00:02:10;2.00;;;1.33;;
2488;SDS011;1255;48.716;9.124;2022-08-20T00:04:36;1.47;;;1.37;;
2488;SDS011;1255;48.716;9.124;2022-08-20T00:07:03;1.50;;;1.30;;
2488;SDS011;1255;48.716;9.124;2022-08-20T00:09:31;1.40;;;1.30;;
2488;SDS011;1255;48.716;9.124;2022-08-20T00:11:59;2.10;;;1.77;;
2488;SDS011;1255;48.716;9.124;2022-08-20T00:14:26;1.60;;;1.50;;
2488;SDS011;1255;48.716;9.124;2022-08-20T00:16:52;1.97;;;1.60;;
2488;SDS011;1255;48.716;9.124;2022-08-20T00:19:19;1.67;;;1.20;;
2488;SDS011;1255;48.716;9.124;2022-08-20T00:21:47;1.83;;;1.63;;
2488;SDS011;1255;48.716;9.124;2022-08-20T00:24:14;1.60;;;1.30;;
2488;SDS011;1255;48.716;9.124;2022-08-20T00:26:42;1.80;;;1.60;;
2488;SDS011;1255;48.716;9.124;2022-08-20T00:29:08;1.53;;;1.43;;
2488;SDS011;1255;48.716;9.124;2022-08-20T00:31:35;2.00;;;1.40;;
2488;SDS011;1255;48.716;9.124;2022-08-20T00:34:02;1.50;;;1.40;;
2488;SDS011;1255;48.716;9.124;2022-08-20T00:36:28;1.20;;;1.10;;
2488;SDS011;1255;48.716;9.124;2022-08-20T00:38:55;1.60;;;1.30;;
2488;SDS011;1255;48.716;9.124;2022-08-20T00:41:24;1.30;;;1.20;;
2488;SDS011;1255;48.716;9.124;2022-08-20T00:44:02;1.83;;;1.40;;
2488;SDS011;1255;48.716;9.124;2022-08-20T00:46:32;1.87;;;1.30;;
2488;SDS011;1255;48.716;9.124;2022-08-20T00:48:59;1.50;;;1.40;;
2488;SDS011;1255;48.716;9.124;2022-08-20T00:51:31;1.60;;;1.37;;
2488;SDS011;1255;48.716;9.124;2022-08-20T00:54:03;1.30;;;1.20;;
2488;SDS011;1255;48.716;9.124;2022-08-20T00:56:35;1.90;;;1.70;;
2488;SDS011;1255;48.716;9.124;2022-08-20T00:59:06;1.53;;;1.10;;
2488;SDS011;1255;48.716;9.124;2022-08-20T01:01:37;1.50;;;1.40;;
2488;SDS011;1255;48.716;9.124;2022-08-20T01:04:06;1.70;;;1.50;;
2488;SDS011;1255;48.716;9.124;2022-08-20T01:06:35;1.53;;;1.30;;
2488;SDS011;1255;48.716;9.124;2022-08-20T01:09:02;1.37;;;1.23;;
2488;SDS011;1255;48.716;9.124;2022-08-20T01:11:29;3.10;;;1.47;;
2488;SDS011;1255;48.716;9.124;2022-08-20T01:13:58;2.40;;;1.53;;
2488;SDS011;1255;48.716;9.124;2022-08-20T01:16:28;1.70;;;1.40;;
2488;SDS011;1255;48.716;9.124;2022-08-20T01:18:57;1.90;;;1.27;;
2488;SDS011;1255;48.716;9.124;2022-08-20T01:21:25;1.27;;;1.17;;
2488;SDS011;1255;48.716;9.124;2022-08-20T01:23:56;1.40;;;1.20;;
2488;SDS011;1255;48.716;9.124;2022-08-20T01:26:28;1.77;;;1.57;;
2488;SDS011;1255;48.716;9.124;2022-08-20T01:29:00;1.40;;;1.30;;
2488;SDS011;1255;48.716;9.124;2022-08-20T01:31:31;1.40;;;1.30;;
2488;SDS011;1255;48.716;9.124;2022-08-20T01:34:00;1.63;;;1.30;;
2488;SDS011;1255;48.716;9.124;2022-08-20T01:36:31;1.40;;;1.30;;
2488;SDS011;1255;48.716;9.124;2022-08-20T01:39:00;1.73;;;1.40;;
2488;SDS011;1255;48.716;9.124;2022-08-20T01:41:35;2.57;;;1.50;;
2488;SDS011;1255;48.716;9.124;2022-08-20T01:44:10;1.90;;;1.70;;
2488;SDS011;1255;48.716;9.124;2022-08-20T01:46:39;1.40;;;1.30;;
2488;SDS011;1255;48.716;9.124;2022-08-20T01:49:10;1.40;;;1.30;;
2488;SDS011;1255;48.716;9.124;2022-08-20T01:51:39;1.60;;;1.50;;
2488;SDS011;1255;48.716;9.124;2022-08-20T01:54:06;1.90;;;1.53;;
2488;SDS011;1255;48.716;9.124;2022-08-20T01:56:34;1.77;;;1.43;;
2488;SDS011;1255;48.716;9.124;2022-08-20T01:59:14;1.73;;;1.53;;
2488;SDS011;1255;48.716;9.124;2022-08-20T02:01:41;1.57;;;1.30;;
2488;SDS011;1255;48.716;9.124;2022-08-20T02:04:08;1.67;;;1.50;;
2488;SDS011;1255;48.716;9.124;2022-08-20T02:06:40;1.50;;;1.40;;
2488;SDS011;1255;48.716;9.124;2022-08-20T02:09:10;1.43;;;1.30;;
2488;SDS011;1255;48.716;9.124;2022-08-20T02:11:39;1.40;;;1.30;;
2488;SDS011;1255;48.716;9.124;2022-08-20T02:14:06;1.43;;;1.33;;
2488;SDS011;1255;48.716;9.124;2022-08-20T02:16:36;1.30;;;1.20;;
2488;SDS011;1255;48.716;9.124;2022-08-20T02:19:06;1.60;;;1.50;;
2488;SDS011;1255;48.716;9.124;2022-08-20T02:21:36;1.37;;;1.20;;
2488;SDS011;1255;48.716;9.124;2022-08-20T02:24:06;1.40;;;1.30;;
2488;SDS011;1255;48.716;9.124;2022-08-20T02:26:34;1.63;;;1.53;;
2488;SDS011;1255;48.716;9.124;2022-08-20T02:29:03;1.67;;;1.50;;
2488;SDS011;1255;48.716;9.124;2022-08-20T02:31:32;3.10;;;1.50;;
2488;SDS011;1255;48.716;9.124;2022-08-20T02:34:00;1.60;;;1.50;;
2488;SDS011;1255;48.716;9.124;2022-08-20T02:36:28;1.77;;;1.67;;
2488;SDS011;1255;48.716;9.124;2022-08-20T02:38:54;1.57;;;1.43;;
2488;SDS011;1255;48.716;9.124;2022-08-20T02:41:21;1.80;;;1.70;;
2488;SDS011;1255;48.716;9.124;2022-08-20T02:43:48;1.50;;;1.40;;
2488;SDS011;1255;48.716;9.124;2022-08-20T02:46:16;1.60;;;1.50;;
2488;SDS011;1255;48.716;9.124;2022-08-20T02:48:43;1.67;;;1.57;;
2488;SDS011;1255;48.716;9.124;2022-08-20T02:51:10;2.33;;;1.80;;
2488;SDS011;1255;48.716;9.124;2022-08-20T02:53:38;1.83;;;1.73;;
2488;SDS011;1255;48.716;9.124;2022-08-20T02:56:06;1.60;;;1.50;;
2488;SDS011;1255;48.716;9.124;2022-08-20T02:58:34;1.50;;;1.40;;
2488;SDS011;1255;48.716;9.124;2022-08-20T03:01:01;1.67;;;1.43;;
2488;SDS011;1255;48.716;9.124;2022-08-20T03:03:31;1.47;;;1.37;;
2488;SDS011;1255;48.716;9.124;2022-08-20T03:05:59;1.57;;;1.37;;
2488;SDS011;1255;48.716;9.124;2022-08-20T03:08:26;1.60;;;1.50;;
2488;SDS011;1255;48.716;9.124;2022-08-20T03:10:54;1.70;;;1.40;;
2488;SDS011;1255;48.716;9.124;2022-08-20T03:13:21;1.50;;;1.40;;
2488;SDS011;1255;48.716;9.124;2022-08-20T03:15:49;1.57;;;1.30;;
2488;SDS011;1255;48.716;9.124;2022-08-20T03:18:18;1.47;;;1.37;;
2488;SDS011;1255;48.716;9.124;2022-08-20T03:20:48;1.70;;;1.60;;
2488;SDS011;1255;48.716;9.124;2022-08-20T03:23:15;1.43;;;1.33;;
2488;SDS011;1255;48.716;9.124;2022-08-20T03:25:43;1.93;;;1.70;;
2488;SDS011;1255;48.716;9.124;2022-08-20T03:28:10;1.27;;;1.10;;
2488;SDS011;1255;48.716;9.124;2022-08-20T03:30:38;1.40;;;1.30;;
2488;SDS011;1255;48.716;9.124;2022-08-20T03:33:05;2.17;;;1.93;;
2488;SDS011;1255;48.716;9.124;2022-08-20T03:35:33;1.70;;;1.50;;
2488;SDS011;1255;48.716;9.124;2022-08-20T03:38:04;1.87;;;1.63;;
2488;SDS011;1255;48.716;9.124;2022-08-20T03:40:32;1.50;;;1.40;;
2488;SDS011;1255;48.716;9.124;2022-08-20T03:43:00;1.93;;;1.73;;
2488;SDS011;1255;48.716;9.124;2022-08-20T03:45:27;2.13;;;1.93;;
2488;SDS011;1255;48.716;9.124;2022-08-20T03:47:56;1.73;;;1.63;;
2488;SDS011;1255;48.716;9.124;2022-08-20T03:50:24;1.70;;;1.53;;
2488;SDS011;1255;48.716;9.124;2022-08-20T03:52:53;2.67;;;1.87;;
2488;SDS011;1255;48.716;9.124;2022-08-20T03:55:23;1.50;;;1.40;;
2488;SDS011;1255;48.716;9.124;2022-08-20T03:57:50;1.50;;;1.40;;
2488;SDS011;1255;48.716;9.124;2022-08-20T04:00:20;1.70;;;1.47;;
2488;SDS011;1255;48.716;9.124;2022-08-20T04:02:48;2.13;;;1.80;;
2488;SDS011;1255;48.716;9.124;2022-08-20T04:05:15;1.93;;;1.83;;
2488;SDS011;1255;48.716;9.124;2022-08-20T04:07:42;2.13;;;1.93;;
2488;SDS011;1255;48.716;9.124;2022-08-20T04:10:10;1.63;;;1.53;;
2488;SDS011;1255;48.716;9.124;2022-08-20T04:12:38;2.03;;;1.70;;
2488;SDS011;1255;48.716;9.124;2022-08-20T04:15:06;1.80;;;1.60;;
2488;SDS011;1255;48.716;9.124;2022-08-20T04:17:35;1.73;;;1.63;;
2488;SDS011;1255;48.716;9.124;2022-08-20T04:20:06;2.03;;;1.83;;
2488;SDS011;1255;48.716;9.124;2022-08-20T04:22:34;2.13;;;1.93;;
2488;SDS011;1255;48.716;9.124;2022-08-20T04:25:02;1.83;;;1.73;;
2488;SDS011;1255;48.716;9.124;2022-08-20T04:27:29;2.40;;;2.20;;
2488;SDS011;1255;48.716;9.124;2022-08-20T04:29:58;1.97;;;1.87;;
2488;SDS011;1255;48.716;9.124;2022-08-20T04:32:26;2.50;;;2.30;;
2488;SDS011;1255;48.716;9.124;2022-08-20T04:34:52;2.40;;;2.20;;
2488;SDS011;1255;48.716;9.124;2022-08-20T04:37:19;2.17;;;1.97;;
2488;SDS011;1255;48.716;9.124;2022-08-20T04:39:47;2.10;;;1.90;;
2488;SDS011;1255;48.716;9.124;2022-08-20T04:42:34;2.17;;;1.97;;
2488;SDS011;1255;48.716;9.124;2022-08-20T04:45:02;1.80;;;1.70;;
2488;SDS011;1255;48.716;9.124;2022-08-20T04:47:30;2.20;;;2.00;;
2488;SDS011;1255;48.716;9.124;2022-08-20T04:49:58;2.67;;;2.47;;
2488;SDS011;1255;48.716;9.124;2022-08-20T04:52:25;2.90;;;2.70;;
2488;SDS011;1255;48.716;9.124;2022-08-20T04:54:52;3.77;;;2.50;;
2488;SDS011;1255;48.716;9.124;2022-08-20T04:57:20;2.03;;;1.83;;
2488;SDS011;1255;48.716;9.124;2022-08-20T04:59:47;2.03;;;1.63;;
2488;SDS011;1255;48.716;9.124;2022-08-20T05:02:17;2.57;;;2.37;;
2488;SDS011;1255;48.716;9.124;2022-08-20T05:04:44;2.20;;;2.00;;
2488;SDS011;1255;48.716;9.124;2022-08-20T05:07:11;2.60;;;2.30;;
2488;SDS011;1255;48.716;9.124;2022-08-20T05:09:38;1.80;;;1.70;;
2488;SDS011;1255;48.716;9.124;2022-08-20T05:12:05;3.87;;;2.20;;
2488;SDS011;1255;48.716;9.124;2022-08-20T05:14:32;2.70;;;2.50;;
2488;SDS011;1255;48.716;9.124;2022-08-20T05:17:00;2.07;;;1.87;;
2488;SDS011;1255;48.716;9.124;2022-08-20T05:19:30;2.20;;;2.10;;
2488;SDS011;1255;48.716;9.124;2022-08-20T05:21:58;1.77;;;1.67;;
2488;SDS011;1255;48.716;9.124;2022-08-20T05:24:25;3.10;;;2.40;;
2488;SDS011;1255;48.716;9.124;2022-08-20T05:26:52;2.73;;;2.53;;
2488;SDS011;1255;48.716;9.124;2022-08-20T05:29:19;2.73;;;2.53;;
2488;SDS011;1255;48.716;9.124;2022-08-20T05:31:47;2.50;;;2.30;;
2488;SDS011;1255;48.716;9.124;2022-08-20T05:34:14;2.67;;;2.47;;
2488;SDS011;1255;48.716;9.124;2022-08-20T05:36:43;2.87;;;2.23;;
2488;SDS011;1255;48.716;9.124;2022-08-20T05:39:11;2.53;;;2.33;;
2488;SDS011;1255;48.716;9.124;2022-08-20T05:41:38;3.03;;;2.73;;
2488;SDS011;1255;48.716;9.124;2022-08-20T05:44:05;2.47;;;2.27;;
2488;SDS011;1255;48.716;9.124;2022-08-20T05:46:34;2.83;;;2.57;;
2488;SDS011;1255;48.716;9.124;2022-08-20T05:49:04;2.70;;;2.50;;
2488;SDS011;1255;48.716;9.124;2022-08-20T05:51:31;2.60;;;2.40;;
2488;SDS011;1255;48.716;9.124;2022-08-20T05:54:01;3.20;;;2.90;;
2488;SDS011;1255;48.716;9.124;2022-08-20T05:56:28;2.77;;;2.20;;
2488;SDS011;1255;48.716;9.124;2022-08-20T05:58:56;2.47;;;2.23;;
2488;SDS011;1255;48.716;9.124;2022-08-20T06:01:26;2.40;;;2.20;;
2488;SDS011;1255;48.716;9.124;2022-08-20T06:03:52;2.23;;;2.03;;
2488;SDS011;1255;48.716;9.124;2022-08-20T06:06:37;2.87;;;2.60;;
2488;SDS011;1255;48.716;9.124;2022-08-20T06:09:05;3.03;;;2.57;;
2488;SDS011;1255;48.716;9.124;2022-08-20T06:11:32;2.77;;;2.47;;
2488;SDS011;1255;48.716;9.124;2022-08-20T06:13:58;3.30;;;2.40;;
2488;SDS011;1255;48.716;9.124;2022-08-20T06:16:26;2.53;;;2.33;;
2488;SDS011;1255;48.716;9.124;2022-08-20T06:18:53;2.63;;;2.43;;
2488;SDS011;1255;48.716;9.124;2022-08-20T06:21:20;3.00;;;2.43;;
2488;SDS011;1255;48.716;9.124;2022-08-20T06:23:46;2.80;;;2.60;;
2488;SDS011;1255;48.716;9.124;2022-08-20T06:26:15;2.47;;;2.27;;
2488;SDS011;1255;48.716;9.124;2022-08-20T06:28:41;3.10;;;2.67;;
2488;SDS011;1255;48.716;9.124;2022-08-20T06:31:08;2.90;;;2.70;;
2488;SDS011;1255;48.716;9.124;2022-08-20T06:33:35;2.67;;;2.47;;
2488;SDS011;1255;48.716;9.124;2022-08-20T06:36:02;2.90;;;2.60;;
2488;SDS011;1255;48.716;9.124;2022-08-20T06:38:29;2.60;;;2.40;;
2488;SDS011;1255;48.716;9.124;2022-08-20T06:40:57;3.17;;;2.87;;
2488;SDS011;1255;48.716;9.124;2022-08-20T06:43:25;3.83;;;2.30;;
2488;SDS011;1255;48.716;9.124;2022-08-20T06:45:52;3.10;;;2.80;;
2488;SDS011;1255;48.716;9.124;2022-08-20T06:48:22;3.20;;;2.70;;
2488;SDS011;1255;48.716;9.124;2022-08-20T06:50:49;2.47;;;2.27;;
2488;SDS011;1255;48.716;9.124;2022-08-20T06:53:18;2.27;;;2.07;;
2488;SDS011;1255;48.716;9.124;2022-08-20T06:55:47;3.03;;;2.83;;
2488;SDS011;1255;48.716;9.124;2022-08-20T06:58:18;3.03;;;2.73;;
2488;SDS011;1255;48.716;9.124;2022-08-20T07:00:47;2.60;;;2.40;;
2488;SDS011;1255;48.716;9.124;2022-08-20T07:03:14;2.70;;;2.50;;
2488;SDS011;1255;48.716;9.124;2022-08-20T07:05:42;2.90;;;2.60;;
2488;SDS011;1255;48.716;9.124;2022-08-20T07:08:10;3.30;;;2.70;;
2488;SDS011;1255;48.716;9.124;2022-08-20T07:10:39;2.60;;;2.40;;
2488;SDS011;1255;48.716;9.124;2022-08-20T07:13:07;2.70;;;2.40;;
2488;SDS011;1255;48.716;9.124;2022-08-20T07:15:34;2.70;;;2.50;;
2488;SDS011;1255;48.716;9.124;2022-08-20T07:18:02;2.60;;;2.40;;
2488;SDS011;1255;48.716;9.124;2022-08-20T07:20:30;4.10;;;2.90;;
2488;SDS011;1255;48.716;9.124;2022-08-20T07:22:59;3.07;;;2.77;;
2488;SDS011;1255;48.716;9.124;2022-08-20T07:25:26;2.67;;;2.47;;
2488;SDS011;1255;48.716;9.124;2022-08-20T07:27:58;2.33;;;2.13;;
2488;SDS011;1255;48.716;9.124;2022-08-20T07:30:26;3.20;;;2.90;;
2488;SDS011;1255;48.716;9.124;2022-08-20T07:33:12;3.00;;;2.80;;
2488;SDS011;1255;48.716;9.124;2022-08-20T07:35:40;2.93;;;2.70;;
2488;SDS011;1255;48.716;9.124;2022-08-20T07:38:12;2.43;;;2.23;;
2488;SDS011;1255;48.716;9.124;2022-08-20T07:40:41;3.03;;;2.73;;
2488;SDS011;1255;48.716;9.124;2022-08-20T07:43:08;2.80;;;2.57;;
2488;SDS011;1255;48.716;9.124;2022-08-20T07:45:35;2.60;;;2.40;;
2488;SDS011;1255;48.716;9.124;2022-08-20T07:48:04;2.70;;;2.50;;
2488;SDS011;1255;48.716;9.124;2022-08-20T07:50:34;2.60;;;2.30;;
2488;SDS011;1255;48.716;9.124;2022-08-20T07:53:01;3.40;;;3.10;;
2488;SDS011;1255;48.716;9.124;2022-08-20T07:55:28;2.47;;;2.27;;
2488;SDS011;1255;48.716;9.124;2022-08-20T07:57:57;2.90;;;2.60;;
2488;SDS011;1255;48.716;9.124;2022-08-20T08:00:27;2.60;;;2.40;;
2488;SDS011;1255;48.716;9.124;2022-08-20T08:02:53;3.07;;;2.77;;
2488;SDS011;1255;48.716;9.124;2022-08-20T08:05:20;2.80;;;2.60;;
2488;SDS011;1255;48.716;9.124;2022-08-20T08:07:48;2.63;;;2.43;;
2488;SDS011;1255;48.716;9.124;2022-08-20T08:10:16;2.97;;;2.67;;
2488;SDS011;1255;48.716;9.124;2022-08-20T08:12:47;3.50;;;3.20;;
2488;SDS011;1255;48.716;9.124;2022-08-20T08:15:16;2.53;;;2.33;;
2488;SDS011;1255;48.716;9.124;2022-08-20T08:17:52;2.93;;;2.70;;
2488;SDS011;1255;48.716;9.124;2022-08-20T08:20:21;2.63;;;2.37;;
2488;SDS011;1255;48.716;9.124;2022-08-20T08:22:50;2.70;;;2.10;;
2488;SDS011;1255;48.716;9.124;2022-08-20T08:25:17;2.50;;;2.30;;
2488;SDS011;1255;48.716;9.124;2022-08-20T08:27:44;2.50;;;2.30;;
2488;SDS011;1255;48.716;9.124;2022-08-20T08:30:13;2.53;;;2.33;;
2488;SDS011;1255;48.716;9.124;2022-08-20T08:32:41;2.73;;;2.47;;
2488;SDS011;1255;48.716;9.124;2022-08-20T08:35:21;2.70;;;2.50;;
2488;SDS011;1255;48.716;9.124;2022-08-20T08:37:48;2.37;;;2.17;;
2488;SDS011;1255;48.716;9.124;2022-08-20T08:40:18;2.40;;;2.20;;
2488;SDS011;1255;48.716;9.124;2022-08-20T08:42:46;2.37;;;2.17;;
2488;SDS011;1255;48.716;9.124;2022-08-20T08:45:22;2.97;;;2.40;;
2488;SDS011;1255;48.716;9.124;2022-08-20T08:47:50;3.23;;;2.80;;
2488;SDS011;1255;48.716;9.124;2022-08-20T08:50:19;3.70;;;2.27;;
2488;SDS011;1255;48.716;9.124;2022-08-20T08:52:51;2.40;;;2.20;;
2488;SDS011;1255;48.716;9.124;2022-08-20T08:55:21;2.30;;;2.10;;
2488;SDS011;1255;48.716;9.124;2022-08-20T08:57:49;1.80;;;1.70;;
2488;SDS011;1255;48.716;9.124;2022-08-20T09:00:20;2.33;;;2.13;;
2488;SDS011;1255;48.716;9.124;2022-08-20T09:02:52;2.07;;;1.87;;
2488;SDS011;1255;48.716;9.124;2022-08-20T09:05:21;2.83;;;2.60;;
2488;SDS011;1255;48.716;9.124;2022-08-20T09:07:52;2.73;;;2.37;;
2488;SDS011;1255;48.716;9.124;2022-08-20T09:10:19;2.67;;;2.30;;
2488;SDS011;1255;48.716;9.124;2022-08-20T09:12:46;2.90;;;2.00;;
2488;SDS011;1255;48.716;9.124;2022-08-20T09:15:13;2.10;;;2.00;;
2488;SDS011;1255;48.716;9.124;2022-08-20T09:17:40;2.07;;;1.97;;
2488;SDS011;1255;48.716;9.124;2022-08-20T09:20:08;4.47;;;2.70;;
2488;SDS011;1255;48.716;9.124;2022-08-20T09:22:35;2.37;;;2.17;;
2488;SDS011;1255;48.716;9.124;2022-08-20T09:25:03;3.10;;;2.47;;
2488;SDS011;1255;48.716;9.124;2022-08-20T09:27:31;2.57;;;2.17;;
2488;SDS011;1255;48.716;9.124;2022-08-20T09:29:57;2.30;;;2.10;;
2488;SDS011;1255;48.716;9.124;2022-08-20T09:32:24;2.37;;;2.17;;
2488;SDS011;1255;48.716;9.124;2022-08-20T09:34:52;1.93;;;1.83;;
2488;SDS011;1255;48.716;9.124;2022-08-20T09:37:21;5.00;;;2.20;;
2488;SDS011;1255;48.716;9.124;2022-08-20T09:39:48;2.27;;;2.07;;
2488;SDS011;1255;48.716;9.124;2022-08-20T09:42:17;1.80;;;1.70;;
2488;SDS011;1255;48.716;9.124;2022-08-20T09:44:45;1.77;;;1.67;;
2488;SDS011;1255;48.716;9.124;2022-08-20T09:47:12;4.23;;;1.70;;
2488;SDS011;1255;48.716;9.124;2022-08-20T09:49:40;2.03;;;1.83;;
2488;SDS011;1255;48.716;9.124;2022-08-20T09:52:08;1.50;;;1.37;;
2488;SDS011;1255;48.716;9.124;2022-08-20T09:54:36;2.03;;;1.90;;
2488;SDS011;1255;48.716;9.124;2022-08-20T09:57:05;2.73;;;1.27;;
2488;SDS011;1255;48.716;9.124;2022-08-20T09:59:35;1.80;;;1.60;;
2488;SDS011;1255;48.716;9.124;2022-08-20T10:02:02;2.10;;;1.73;;
2488;SDS011;1255;48.716;9.124;2022-08-20T10:04:29;2.20;;;2.00;;
2488;SDS011;1255;48.716;9.124;2022-08-20T10:06:56;2.03;;;1.67;;
2488;SDS011;1255;48.716;9.124;2022-08-20T10:09:23;1.53;;;1.43;;
2488;SDS011;1255;48.716;9.124;2022-08-20T10:11:49;5.53;;;1.60;;
2488;SDS011;1255;48.716;9.124;2022-08-20T10:14:16;2.10;;;1.77;;
2488;SDS011;1255;48.716;9.124;2022-08-20T10:16:44;1.50;;;1.40;;
2488;SDS011;1255;48.716;9.124;2022-08-20T10:19:11;1.60;;;1.40;;
2488;SDS011;1255;48.716;9.124;2022-08-20T10:21:38;2.47;;;1.50;;
2488;SDS011;1255;48.716;9.124;2022-08-20T10:24:05;1.67;;;1.47;;
2488;SDS011;1255;48.716;9.124;2022-08-20T10:26:32;1.87;;;1.77;;
2488;SDS011;1255;48.716;9.124;2022-08-20T10:28:58;1.50;;;1.40;;
2488;SDS011;1255;48.716;9.124;2022-08-20T10:31:26;2.00;;;1.80;;
2488;SDS011;1255;48.716;9.124;2022-08-20T10:33:54;2.50;;;1.20;;
2488;SDS011;1255;48.716;9.124;2022-08-20T10:36:21;1.90;;;1.70;;
2488;SDS011;1255;48.716;9.124;2022-08-20T10:38:48;1.70;;;1.50;;
2488;SDS011;1255;48.716;9.124;2022-08-20T10:41:15;1.30;;;1.20;;
2488;SDS011;1255;48.716;9.124;2022-08-20T10:43:43;0.93;;;0.80;;
2488;SDS011;1255;48.716;9.124;2022-08-20T10:46:10;1.30;;;0.80;;
2488;SDS011;1255;48.716;9.124;2022-08-20T10:48:37;1.63;;;1.10;;
2488;SDS011;1255;48.716;9.124;2022-08-20T10:51:06;1.20;;;1.00;;
2488;SDS011;1255;48.716;9.124;2022-08-20T10:53:32;1.10;;;0.90;;
2488;SDS011;1255;48.716;9.124;2022-08-20T10:55:59;1.00;;;0.90;;
2488;SDS011;1255;48.716;9.124;2022-08-20T10:58:26;0.80;;;0.70;;
2488;SDS011;1255;48.716;9.124;2022-08-20T11:00:54;1.20;;;1.00;;
2488;SDS011;1255;48.716;9.124;2022-08-20T11:03:20;0.90;;;0.77;;
2488;SDS011;1255;48.716;9.124;2022-08-20T11:05:47;1.03;;;0.93;;
2488;SDS011;1255;48.716;9.124;2022-08-20T11:08:16;1.00;;;0.83;;
2488;SDS011;1255;48.716;9.124;2022-08-20T11:10:42;1.40;;;1.10;;
2488;SDS011;1255;48.716;9.124;2022-08-20T11:13:09;1.87;;;0.90;;
2488;SDS011;1255;48.716;9.124;2022-08-20T11:15:37;1.10;;;1.00;;
2488;SDS011;1255;48.716;9.124;2022-08-20T11:18:06;0.90;;;0.77;;
2488;SDS011;1255;48.716;9.124;2022-08-20T11:20:33;1.20;;;0.90;;
2488;SDS011;1255;48.716;9.124;2022-08-20T11:23:01;1.00;;;0.80;;
2488;SDS011;1255;48.716;9.124;2022-08-20T11:25:29;1.07;;;0.90;;
2488;SDS011;1255;48.716;9.124;2022-08-20T11:27:56;1.13;;;1.03;;
2488;SDS011;1255;48.716;9.124;2022-08-20T11:30:23;1.10;;;0.87;;
2488;SDS011;1255;48.716;9.124;2022-08-20T11:32:52;1.43;;;1.00;;
2488;SDS011;1255;48.716;9.124;2022-08-20T11:35:19;0.90;;;0.80;;
2488;SDS011;1255;48.716;9.124;2022-08-20T11:37:47;1.00;;;0.90;;
2488;SDS011;1255;48.716;9.124;2022-08-20T11:40:15;1.00;;;0.90;;
2488;SDS011;1255;48.716;9.124;2022-08-20T11:42:43;1.37;;;0.90;;
2488;SDS011;1255;48.716;9.124;2022-08-20T11:45:11;1.27;;;1.03;;
2488;SDS011;1255;48.716;9.124;2022-08-20T11:47:38;0.90;;;0.80;;
2488;SDS011;1255;48.716;9.124;2022-08-20T11:50:07;1.83;;;0.93;;
2488;SDS011;1255;48.716;9.124;2022-08-20T11:52:36;1.20;;;1.10;;
2488;SDS011;1255;48.716;9.124;2022-08-20T11:55:04;1.10;;;1.00;;
2488;SDS011;1255;48.716;9.124;2022-08-20T11:57:33;1.20;;;1.10;;
2488;SDS011;1255;48.716;9.124;2022-08-20T12:00:03;1.77;;;1.10;;
2488;SDS011;1255;48.716;9.124;2022-08-20T12:02:32;1.30;;;1.13;;
2488;SDS011;1255;48.716;9.124;2022-08-20T12:04:59;1.20;;;1.10;;
2488;SDS011;1255;48.716;9.124;2022-08-20T12:07:26;1.00;;;0.90;;
2488;SDS011;1255;48.716;9.124;2022-08-20T12:09:53;1.50;;;1.10;;
2488;SDS011;1255;48.716;9.124;2022-08-20T12:12:20;1.03;;;0.90;;
2488;SDS011;1255;48.716;9.124;2022-08-20T12:14:48;2.13;;;1.30;;
2488;SDS011;1255;48.716;9.124;2022-08-20T12:17:18;1.10;;;1.00;;
2488;SDS011;1255;48.716;9.124;2022-08-20T12:19:47;1.30;;;1.20;;
2488;SDS011;1255;48.716;9.124;2022-08-20T12:22:15;1.20;;;1.03;;
2488;SDS011;1255;48.716;9.124;2022-08-20T12:24:42;1.00;;;0.83;;
2488;SDS011;1255;48.716;9.124;2022-08-20T12:27:10;1.77;;;1.27;;
2488;SDS011;1255;48.716;9.124;2022-08-20T12:29:39;0.93;;;0.83;;
2488;SDS011;1255;48.716;9.124;2022-08-20T12:32:06;1.50;;;1.40;;
2488;SDS011;1255;48.716;9.124;2022-08-20T12:34:36;1.83;;;1.20;;
2488;SDS011;1255;48.716;9.124;2022-08-20T12:37:06;1.20;;;1.10;;
2488;SDS011;1255;48.716;9.124;2022-08-20T12:39:36;1.10;;;1.00;;
2488;SDS011;1255;48.716;9.124;2022-08-20T12:42:03;1.13;;;1.03;;
2488;SDS011;1255;48.716;9.124;2022-08-20T12:44:30;1.30;;;1.00;;
2488;SDS011;1255;48.716;9.124;2022-08-20T12:47:07;1.20;;;1.10;;
2488;SDS011;1255;48.716;9.124;2022-08-20T12:49:39;1.23;;;1.00;;
2488;SDS011;1255;48.716;9.124;2022-08-20T12:52:07;1.40;;;1.30;;
2488;SDS011;1255;48.716;9.124;2022-08-20T12:54:34;1.30;;;1.20;;
2488;SDS011;1255;48.716;9.124;2022-08-20T12:57:01;1.33;;;1.00;;
2488;SDS011;1255;48.716;9.124;2022-08-20T12:59:28;1.20;;;1.10;;
2488;SDS011;1255;48.716;9.124;2022-08-20T13:01:55;1.07;;;0.93;;
2488;SDS011;1255;48.716;9.124;2022-08-20T13:04:22;1.23;;;1.00;;
2488;SDS011;1255;48.716;9.124;2022-08-20T13:06:50;1.30;;;1.10;;
2488;SDS011;1255;48.716;9.124;2022-08-20T13:09:17;1.20;;;1.00;;
2488;SDS011;1255;48.716;9.124;2022-08-20T13:11:43;1.17;;;1.07;;
2488;SDS011;1255;48.716;9.124;2022-08-20T13:14:10;1.23;;;1.13;;
2488;SDS011;1255;48.716;9.124;2022-08-20T13:16:37;1.30;;;1.20;;
2488;SDS011;1255;48.716;9.124;2022-08-20T13:19:04;1.00;;;0.90;;
2488;SDS011;1255;48.716;9.124;2022-08-20T13:21:30;1.20;;;1.10;;
2488;SDS011;1255;48.716;9.124;2022-08-20T13:23:58;1.70;;;1.23;;
2488;SDS011;1255;48.716;9.124;2022-08-20T13:26:25;1.50;;;1.40;;
2488;SDS011;1255;48.716;9.124;2022-08-20T13:28:52;1.30;;;1.20;;
2488;SDS011;1255;48.716;9.124;2022-08-20T13:31:18;1.47;;;1.10;;
2488;SDS011;1255;48.716;9.124;2022-08-20T13:33:45;1.57;;;1.47;;
2488;SDS011;1255;48.716;9.124;2022-08-20T13:36:12;1.10;;;1.00;;
2488;SDS011;1255;48.716;9.124;2022-08-20T13:38:39;1.20;;;1.10;;
2488;SDS011;1255;48.716;9.124;2022-08-20T13:41:07;1.30;;;1.20;;
2488;SDS011;1255;48.716;9.124;2022-08-20T13:43:33;1.43;;;1.20;;
2488;SDS011;1255;48.716;9.124;2022-08-20T13:46:00;1.40;;;1.27;;
2488;SDS011;1255;48.716;9.124;2022-08-20T13:48:27;1.17;;;1.07;;
2488;SDS011;1255;48.716;9.124;2022-08-20T13:50:54;1.37;;;1.27;;
2488;SDS011;1255;48.716;9.124;2022-08-20T13:53:20;1.97;;;1.87;;
2488;SDS011;1255;48.716;9.124;2022-08-20T13:55:47;1.30;;;1.20;;
2488;SDS011;1255;48.716;9.124;2022-08-20T13:58:15;1.20;;;1.10;;
2488;SDS011;1255;48.716;9.124;2022-08-20T14:00:42;2.30;;;1.20;;
2488;SDS011;1255;48.716;9.124;2022-08-20T14:03:10;1.10;;;1.00;;
2488;SDS011;1255;48.716;9.124;2022-08-20T14:05:37;1.90;;;1.50;;
2488;SDS011;1255;48.716;9.124;2022-08-20T14:08:05;1.57;;;1.23;;
2488;SDS011;1255;48.716;9.124;2022-08-20T14:10:33;1.37;;;1.27;;
2488;SDS011;1255;48.716;9.124;2022-08-20T14:13:01;3.00;;;1.13;;
2488;SDS011;1255;48.716;9.124;2022-08-20T14:15:32;1.30;;;1.20;;
2488;SDS011;1255;48.716;9.124;2022-08-20T14:17:58;1.30;;;1.20;;
2488;SDS011;1255;48.716;9.124;2022-08-20T14:20:27;1.57;;;1.10;;
2488;SDS011;1255;48.716;9.124;2022-08-20T14:22:55;1.27;;;1.17;;
2488;SDS011;1255;48.716;9.124;2022-08-20T14:25:22;1.53;;;1.30;;
2488;SDS011;1255;48.716;9.124;2022-08-20T14:27:50;1.23;;;1.13;;
2488;SDS011;1255;48.716;9.124;2022-08-20T14:30:19;1.20;;;1.10;;
2488;SDS011;1255;48.716;9.124;2022-08-20T14:32:51;1.30;;;1.20;;
2488;SDS011;1255;48.716;9.124;2022-08-20T14:35:18;2.10;;;1.23;;
2488;SDS011;1255;48.716;9.124;2022-08-20T14:37:46;1.30;;;1.20;;
2488;SDS011;1255;48.716;9.124;2022-08-20T14:40:15;1.70;;;1.30;;
2488;SDS011;1255;48.716;9.124;2022-08-20T14:42:42;1.20;;;1.10;;
2488;SDS011;1255;48.716;9.124;2022-08-20T14:45:10;1.30;;;1.20;;
2488;SDS011;1255;48.716;9.124;2022-08-20T14:47:38;1.97;;;1.37;;
2488;SDS011;1255;48.716;9.124;2022-08-20T14:50:10;1.13;;;1.03;;
2488;SDS011;1255;48.716;9.124;2022-08-20T14:52:40;1.30;;;1.20;;
2488;SDS011;1255;48.716;9.124;2022-08-20T14:55:08;1.30;;;1.10;;
2488;SDS011;1255;48.716;9.124;2022-08-20T14:57:36;1.40;;;1.30;;
2488;SDS011;1255;48.716;9.124;2022-08-20T15:00:04;1.67;;;1.20;;
2488;SDS011;1255;48.716;9.124;2022-08-20T15:02:33;1.60;;;1.50;;
2488;SDS011;1255;48.716;9.124;2022-08-20T15:05:00;1.37;;;1.27;;
2488;SDS011;1255;48.716;9.124;2022-08-20T15:07:29;1.20;;;1.10;;
2488;SDS011;1255;48.716;9.124;2022-08-20T15:09:57;1.40;;;1.20;;
2488;SDS011;1255;48.716;9.124;2022-08-20T15:12:25;1.50;;;1.40;;
2488;SDS011;1255;48.716;9.124;2022-08-20T15:14:53;1.57;;;1.37;;
2488;SDS011;1255;48.716;9.124;2022-08-20T15:17:20;1.80;;;1.30;;
2488;SDS011;1255;48.716;9.124;2022-08-20T15:19:49;1.83;;;1.30;;
2488;SDS011;1255;48.716;9.124;2022-08-20T15:22:16;2.13;;;1.40;;